Аэропорт
Алматы (UAAA)

 UAAA / ALA
ЗЦ Центральная Азия
Алматы (UAAA)
Алматы (UAAA)
 43.35210, 77.04050  / 2234 ft

 UAAA 300630Z VRB01MPS 9999 SCT200 09/M06 Q1033 R88/65D NOSIG
 TAF UAAA 292300Z 3000/3024 04003G10MPS 9999 NSC TX10/3009Z TNM06/3001Z TEMPO 3000/3004 16003MPS 3100 BR FU BECMG 3012/3013 16003MPS 3100 BR FU TEMPO 3012/3019 1500
UAAA Jepp 20-06, UAAA Lido 20-06
показать схемы
Название сценария Тип сценария Flight Simulator 9 Flight Simulator X Prepar3D v2 Prepar3D v3 Prepar3D v4 Prepar3D v5 xPlane
Recommended scenery for FS9 бесплатный
Recommended scenery for FSX бесплатный
UAAA 2020 бесплатный
UAAA 2020 бесплатный


2020 © VATRUS division (Privacy Policy)